sensor_id;sensor_type;location;lat;lon;timestamp;temperature;humidity
29281;DHT22;25048;49.590;11.026;2022-11-15T00:01:11;4.20;99.90
29281;DHT22;25048;49.590;11.026;2022-11-15T00:03:38;4.10;99.90
29281;DHT22;25048;49.590;11.026;2022-11-15T00:06:06;4.10;99.90
29281;DHT22;25048;49.590;11.026;2022-11-15T00:08:33;4.10;99.90
29281;DHT22;25048;49.590;11.026;2022-11-15T00:11:02;4.10;99.90
29281;DHT22;25048;49.590;11.026;2022-11-15T00:13:33;4.00;99.90
29281;DHT22;25048;49.590;11.026;2022-11-15T00:16:01;4.00;99.90
29281;DHT22;25048;49.590;11.026;2022-11-15T00:18:30;4.00;99.90
29281;DHT22;25048;49.590;11.026;2022-11-15T00:21:03;3.90;99.90
29281;DHT22;25048;49.590;11.026;2022-11-15T00:23:32;3.90;99.90
29281;DHT22;25048;49.590;11.026;2022-11-15T00:26:00;3.90;99.90
29281;DHT22;25048;49.590;11.026;2022-11-15T00:28:27;3.80;99.90
29281;DHT22;25048;49.590;11.026;2022-11-15T00:31:06;3.80;99.90
29281;DHT22;25048;49.590;11.026;2022-11-15T00:33:29;3.80;99.90
29281;DHT22;25048;49.590;11.026;2022-11-15T00:36:02;3.80;99.90
29281;DHT22;25048;49.590;11.026;2022-11-15T00:38:32;3.70;99.90
29281;DHT22;25048;49.590;11.026;2022-11-15T00:41:00;3.70;99.90
29281;DHT22;25048;49.590;11.026;2022-11-15T00:43:28;3.70;99.90
29281;DHT22;25048;49.590;11.026;2022-11-15T00:45:56;3.60;99.90
29281;DHT22;25048;49.590;11.026;2022-11-15T00:48:24;3.50;99.90
29281;DHT22;25048;49.590;11.026;2022-11-15T00:50:51;3.50;99.90
29281;DHT22;25048;49.590;11.026;2022-11-15T00:53:19;3.50;99.90
29281;DHT22;25048;49.590;11.026;2022-11-15T00:55:46;3.40;99.90
29281;DHT22;25048;49.590;11.026;2022-11-15T00:58:14;3.40;99.90
29281;DHT22;25048;49.590;11.026;2022-11-15T01:00:41;3.30;99.90
29281;DHT22;25048;49.590;11.026;2022-11-15T01:03:09;3.30;99.90
29281;DHT22;25048;49.590;11.026;2022-11-15T01:05:39;3.30;99.90
29281;DHT22;25048;49.590;11.026;2022-11-15T01:08:11;3.20;99.90
29281;DHT22;25048;49.590;11.026;2022-11-15T01:10:37;3.10;99.90
29281;DHT22;25048;49.590;11.026;2022-11-15T01:13:04;3.10;99.90
29281;DHT22;25048;49.590;11.026;2022-11-15T01:15:32;3.10;99.90
29281;DHT22;25048;49.590;11.026;2022-11-15T01:17:59;3.10;99.90
29281;DHT22;25048;49.590;11.026;2022-11-15T01:20:27;3.10;99.90
29281;DHT22;25048;49.590;11.026;2022-11-15T01:22:54;3.00;99.90
29281;DHT22;25048;49.590;11.026;2022-11-15T01:25:22;3.00;99.90
29281;DHT22;25048;49.590;11.026;2022-11-15T01:27:49;3.00;99.90
29281;DHT22;25048;49.590;11.026;2022-11-15T01:30:17;3.00;99.90
29281;DHT22;25048;49.590;11.026;2022-11-15T01:32:44;3.00;99.90
29281;DHT22;25048;49.590;11.026;2022-11-15T01:35:12;3.00;99.90
29281;DHT22;25048;49.590;11.026;2022-11-15T01:37:39;3.00;99.90
29281;DHT22;25048;49.590;11.026;2022-11-15T01:40:07;3.00;99.90
29281;DHT22;25048;49.590;11.026;2022-11-15T01:42:34;2.90;99.90
29281;DHT22;25048;49.590;11.026;2022-11-15T01:45:04;2.90;99.90
29281;DHT22;25048;49.590;11.026;2022-11-15T01:47:41;2.80;99.90
29281;DHT22;25048;49.590;11.026;2022-11-15T01:50:09;2.80;99.90
29281;DHT22;25048;49.590;11.026;2022-11-15T01:52:36;2.80;99.90
29281;DHT22;25048;49.590;11.026;2022-11-15T01:55:11;2.70;99.90
29281;DHT22;25048;49.590;11.026;2022-11-15T01:57:40;2.70;99.90
29281;DHT22;25048;49.590;11.026;2022-11-15T02:00:09;2.70;99.90
29281;DHT22;25048;49.590;11.026;2022-11-15T02:02:37;2.70;99.90
29281;DHT22;25048;49.590;11.026;2022-11-15T02:05:06;2.70;99.90
29281;DHT22;25048;49.590;11.026;2022-11-15T02:07:35;2.70;99.90
29281;DHT22;25048;49.590;11.026;2022-11-15T02:10:17;2.80;99.90
29281;DHT22;25048;49.590;11.026;2022-11-15T02:12:43;2.80;99.90
29281;DHT22;25048;49.590;11.026;2022-11-15T02:15:11;2.80;99.90
29281;DHT22;25048;49.590;11.026;2022-11-15T02:20:46;2.80;99.90
29281;DHT22;25048;49.590;11.026;2022-11-15T02:29:10;3.00;99.90
29281;DHT22;25048;49.590;11.026;2022-11-15T02:32:00;3.00;99.90
29281;DHT22;25048;49.590;11.026;2022-11-15T02:34:35;3.00;99.90
29281;DHT22;25048;49.590;11.026;2022-11-15T02:37:10;2.90;99.90
29281;DHT22;25048;49.590;11.026;2022-11-15T02:39:46;2.90;99.90
29281;DHT22;25048;49.590;11.026;2022-11-15T02:42:26;2.80;99.90
29281;DHT22;25048;49.590;11.026;2022-11-15T02:45:17;2.70;99.90
29281;DHT22;25048;49.590;11.026;2022-11-15T02:47:45;2.70;99.90
29281;DHT22;25048;49.590;11.026;2022-11-15T02:50:20;2.60;99.90
29281;DHT22;25048;49.590;11.026;2022-11-15T02:52:48;2.60;99.90
29281;DHT22;25048;49.590;11.026;2022-11-15T02:55:34;2.60;99.90
29281;DHT22;25048;49.590;11.026;2022-11-15T03:01:06;2.50;99.90
29281;DHT22;25048;49.590;11.026;2022-11-15T03:06:26;2.50;99.90
29281;DHT22;25048;49.590;11.026;2022-11-15T03:09:07;2.50;99.90
29281;DHT22;25048;49.590;11.026;2022-11-15T03:11:45;2.50;99.90
29281;DHT22;25048;49.590;11.026;2022-11-15T03:14:24;2.50;99.90
29281;DHT22;25048;49.590;11.026;2022-11-15T03:17:19;2.50;99.90
29281;DHT22;25048;49.590;11.026;2022-11-15T03:19:47;2.40;99.90
29281;DHT22;25048;49.590;11.026;2022-11-15T03:22:19;2.40;99.90
29281;DHT22;25048;49.590;11.026;2022-11-15T03:27:43;2.30;99.90
29281;DHT22;25048;49.590;11.026;2022-11-15T03:30:12;2.30;99.90
29281;DHT22;25048;49.590;11.026;2022-11-15T03:32:48;2.30;99.90
29281;DHT22;25048;49.590;11.026;2022-11-15T03:35:21;2.20;99.90
29281;DHT22;25048;49.590;11.026;2022-11-15T03:37:51;2.20;99.90
29281;DHT22;25048;49.590;11.026;2022-11-15T03:40:22;2.20;99.90
29281;DHT22;25048;49.590;11.026;2022-11-15T03:43:11;2.20;99.90
29281;DHT22;25048;49.590;11.026;2022-11-15T03:45:44;2.10;99.90
29281;DHT22;25048;49.590;11.026;2022-11-15T03:48:16;2.10;99.90
29281;DHT22;25048;49.590;11.026;2022-11-15T03:50:44;2.00;99.90
29281;DHT22;25048;49.590;11.026;2022-11-15T03:53:13;2.00;99.90
29281;DHT22;25048;49.590;11.026;2022-11-15T03:55:40;2.00;99.90
29281;DHT22;25048;49.590;11.026;2022-11-15T03:58:08;2.00;99.90
29281;DHT22;25048;49.590;11.026;2022-11-15T04:00:36;1.90;99.90
29281;DHT22;25048;49.590;11.026;2022-11-15T04:03:03;1.90;99.90
29281;DHT22;25048;49.590;11.026;2022-11-15T04:05:31;1.90;99.90
29281;DHT22;25048;49.590;11.026;2022-11-15T04:07:58;1.90;99.90
29281;DHT22;25048;49.590;11.026;2022-11-15T04:10:26;1.90;99.90
29281;DHT22;25048;49.590;11.026;2022-11-15T04:12:53;1.90;99.90
29281;DHT22;25048;49.590;11.026;2022-11-15T04:15:22;1.90;99.90
29281;DHT22;25048;49.590;11.026;2022-11-15T04:17:53;1.90;99.90
29281;DHT22;25048;49.590;11.026;2022-11-15T04:20:26;1.90;99.90
29281;DHT22;25048;49.590;11.026;2022-11-15T04:23:17;1.90;99.90
29281;DHT22;25048;49.590;11.026;2022-11-15T04:26:08;1.80;99.90
29281;DHT22;25048;49.590;11.026;2022-11-15T04:28:31;1.80;99.90
29281;DHT22;25048;49.590;11.026;2022-11-15T04:30:58;1.70;99.90
29281;DHT22;25048;49.590;11.026;2022-11-15T04:33:26;1.70;99.90
29281;DHT22;25048;49.590;11.026;2022-11-15T04:35:54;1.70;99.90
29281;DHT22;25048;49.590;11.026;2022-11-15T04:38:39;1.60;99.90
29281;DHT22;25048;49.590;11.026;2022-11-15T04:41:06;1.60;99.90
29281;DHT22;25048;49.590;11.026;2022-11-15T04:43:34;1.60;99.90
29281;DHT22;25048;49.590;11.026;2022-11-15T04:46:01;1.60;99.90
29281;DHT22;25048;49.590;11.026;2022-11-15T04:48:29;1.60;99.90
29281;DHT22;25048;49.590;11.026;2022-11-15T04:50:56;1.60;99.90
29281;DHT22;25048;49.590;11.026;2022-11-15T04:53:24;1.60;99.90
29281;DHT22;25048;49.590;11.026;2022-11-15T04:55:51;1.60;99.90
29281;DHT22;25048;49.590;11.026;2022-11-15T04:58:19;1.50;99.90
29281;DHT22;25048;49.590;11.026;2022-11-15T05:00:46;1.50;99.90
29281;DHT22;25048;49.590;11.026;2022-11-15T05:03:14;1.50;99.90
29281;DHT22;25048;49.590;11.026;2022-11-15T05:05:59;1.40;99.90
29281;DHT22;25048;49.590;11.026;2022-11-15T05:08:27;1.40;99.90
29281;DHT22;25048;49.590;11.026;2022-11-15T05:10:54;1.40;99.90
29281;DHT22;25048;49.590;11.026;2022-11-15T05:13:22;1.40;99.90
29281;DHT22;25048;49.590;11.026;2022-11-15T05:15:50;1.40;99.90
29281;DHT22;25048;49.590;11.026;2022-11-15T05:18:17;1.40;99.90
29281;DHT22;25048;49.590;11.026;2022-11-15T05:20:44;1.50;99.90
29281;DHT22;25048;49.590;11.026;2022-11-15T05:23:12;1.50;99.90
29281;DHT22;25048;49.590;11.026;2022-11-15T05:25:39;1.50;99.90
29281;DHT22;25048;49.590;11.026;2022-11-15T05:28:07;1.50;99.90
29281;DHT22;25048;49.590;11.026;2022-11-15T05:30:34;1.50;99.90
29281;DHT22;25048;49.590;11.026;2022-11-15T05:33:02;1.40;99.90
29281;DHT22;25048;49.590;11.026;2022-11-15T05:35:37;1.40;99.90
29281;DHT22;25048;49.590;11.026;2022-11-15T05:38:01;1.40;99.90
29281;DHT22;25048;49.590;11.026;2022-11-15T05:40:29;1.40;99.90
29281;DHT22;25048;49.590;11.026;2022-11-15T05:42:57;1.30;99.90
29281;DHT22;25048;49.590;11.026;2022-11-15T05:45:26;1.30;99.90
29281;DHT22;25048;49.590;11.026;2022-11-15T05:47:56;1.20;99.90
29281;DHT22;25048;49.590;11.026;2022-11-15T05:50:24;1.20;99.90
29281;DHT22;25048;49.590;11.026;2022-11-15T05:52:52;1.10;99.90
29281;DHT22;25048;49.590;11.026;2022-11-15T05:55:21;1.10;99.90
29281;DHT22;25048;49.590;11.026;2022-11-15T05:57:49;1.10;99.90
29281;DHT22;25048;49.590;11.026;2022-11-15T06:00:16;1.10;99.90
29281;DHT22;25048;49.590;11.026;2022-11-15T06:02:44;1.00;99.90
29281;DHT22;25048;49.590;11.026;2022-11-15T06:05:11;1.00;99.90
29281;DHT22;25048;49.590;11.026;2022-11-15T06:07:39;1.00;99.90
29281;DHT22;25048;49.590;11.026;2022-11-15T06:10:07;1.00;99.90
29281;DHT22;25048;49.590;11.026;2022-11-15T06:12:35;1.00;99.90
29281;DHT22;25048;49.590;11.026;2022-11-15T06:15:03;0.90;99.90
29281;DHT22;25048;49.590;11.026;2022-11-15T06:17:30;0.90;99.90
29281;DHT22;25048;49.590;11.026;2022-11-15T06:19:58;0.90;99.90
29281;DHT22;25048;49.590;11.026;2022-11-15T06:22:25;0.90;99.90
29281;DHT22;25048;49.590;11.026;2022-11-15T06:24:53;0.90;99.90
29281;DHT22;25048;49.590;11.026;2022-11-15T06:27:20;0.90;99.90
29281;DHT22;25048;49.590;11.026;2022-11-15T06:29:48;0.90;99.90
29281;DHT22;25048;49.590;11.026;2022-11-15T06:32:15;0.90;99.90
29281;DHT22;25048;49.590;11.026;2022-11-15T06:34:43;1.00;99.90
29281;DHT22;25048;49.590;11.026;2022-11-15T06:37:10;1.00;99.90
29281;DHT22;25048;49.590;11.026;2022-11-15T06:39:38;1.10;99.90
29281;DHT22;25048;49.590;11.026;2022-11-15T06:42:05;1.10;99.90
29281;DHT22;25048;49.590;11.026;2022-11-15T06:44:33;1.10;99.90
29281;DHT22;25048;49.590;11.026;2022-11-15T06:47:00;1.10;99.90
29281;DHT22;25048;49.590;11.026;2022-11-15T06:49:27;1.10;99.90
29281;DHT22;25048;49.590;11.026;2022-11-15T06:51:55;1.10;99.90
29281;DHT22;25048;49.590;11.026;2022-11-15T06:54:23;1.10;99.90
29281;DHT22;25048;49.590;11.026;2022-11-15T06:56:50;1.10;99.90
29281;DHT22;25048;49.590;11.026;2022-11-15T06:59:17;1.20;99.90
29281;DHT22;25048;49.590;11.026;2022-11-15T07:01:45;1.20;99.90
29281;DHT22;25048;49.590;11.026;2022-11-15T07:04:12;1.30;99.90
29281;DHT22;25048;49.590;11.026;2022-11-15T07:06:40;1.40;99.90
29281;DHT22;25048;49.590;11.026;2022-11-15T07:09:07;1.40;99.90
29281;DHT22;25048;49.590;11.026;2022-11-15T07:11:35;1.50;99.90
29281;DHT22;25048;49.590;11.026;2022-11-15T07:14:02;1.60;99.90
29281;DHT22;25048;49.590;11.026;2022-11-15T07:16:30;1.60;99.90
29281;DHT22;25048;49.590;11.026;2022-11-15T07:18:57;1.80;99.90
29281;DHT22;25048;49.590;11.026;2022-11-15T07:21:25;1.90;99.90
29281;DHT22;25048;49.590;11.026;2022-11-15T07:23:52;2.10;99.90
29281;DHT22;25048;49.590;11.026;2022-11-15T07:26:20;2.20;99.90
29281;DHT22;25048;49.590;11.026;2022-11-15T07:28:48;2.30;99.90
29281;DHT22;25048;49.590;11.026;2022-11-15T07:31:15;2.40;99.90
29281;DHT22;25048;49.590;11.026;2022-11-15T07:33:43;2.60;99.90
29281;DHT22;25048;49.590;11.026;2022-11-15T07:36:10;2.70;99.90
29281;DHT22;25048;49.590;11.026;2022-11-15T07:38:37;2.80;99.90
29281;DHT22;25048;49.590;11.026;2022-11-15T07:41:06;3.00;99.90
29281;DHT22;25048;49.590;11.026;2022-11-15T07:43:33;3.20;99.90
29281;DHT22;25048;49.590;11.026;2022-11-15T07:46:06;3.40;99.90
29281;DHT22;25048;49.590;11.026;2022-11-15T07:48:37;3.50;99.90
29281;DHT22;25048;49.590;11.026;2022-11-15T07:51:09;3.70;99.90
29281;DHT22;25048;49.590;11.026;2022-11-15T07:53:36;3.80;99.90
29281;DHT22;25048;49.590;11.026;2022-11-15T07:56:05;4.00;99.90
29281;DHT22;25048;49.590;11.026;2022-11-15T07:58:34;4.10;99.90
29281;DHT22;25048;49.590;11.026;2022-11-15T08:01:06;4.30;99.90
29281;DHT22;25048;49.590;11.026;2022-11-15T08:03:35;4.40;99.90
29281;DHT22;25048;49.590;11.026;2022-11-15T08:06:03;4.50;99.90
29281;DHT22;25048;49.590;11.026;2022-11-15T08:08:30;4.70;99.90
29281;DHT22;25048;49.590;11.026;2022-11-15T08:10:58;4.80;99.90
29281;DHT22;25048;49.590;11.026;2022-11-15T08:13:26;4.90;99.90
29281;DHT22;25048;49.590;11.026;2022-11-15T08:15:59;5.00;99.90
29281;DHT22;25048;49.590;11.026;2022-11-15T08:18:26;5.20;99.90
29281;DHT22;25048;49.590;11.026;2022-11-15T08:20:57;5.40;99.90
29281;DHT22;25048;49.590;11.026;2022-11-15T08:23:23;5.50;99.90
29281;DHT22;25048;49.590;11.026;2022-11-15T08:25:50;5.70;99.90
29281;DHT22;25048;49.590;11.026;2022-11-15T08:28:18;5.90;99.90
29281;DHT22;25048;49.590;11.026;2022-11-15T08:30:45;6.10;99.90
29281;DHT22;25048;49.590;11.026;2022-11-15T08:33:14;6.30;99.90
29281;DHT22;25048;49.590;11.026;2022-11-15T08:35:42;6.60;99.90
29281;DHT22;25048;49.590;11.026;2022-11-15T08:38:10;6.80;99.90
29281;DHT22;25048;49.590;11.026;2022-11-15T08:40:38;7.00;99.90
29281;DHT22;25048;49.590;11.026;2022-11-15T08:43:05;7.20;99.90
29281;DHT22;25048;49.590;11.026;2022-11-15T08:45:35;7.40;99.90
29281;DHT22;25048;49.590;11.026;2022-11-15T08:48:03;7.70;99.90
29281;DHT22;25048;49.590;11.026;2022-11-15T08:50:31;8.00;99.90
29281;DHT22;25048;49.590;11.026;2022-11-15T08:53:06;8.20;99.90
29281;DHT22;25048;49.590;11.026;2022-11-15T08:55:38;8.40;99.90
29281;DHT22;25048;49.590;11.026;2022-11-15T08:58:06;8.60;99.90
29281;DHT22;25048;49.590;11.026;2022-11-15T09:00:34;8.70;99.90
29281;DHT22;25048;49.590;11.026;2022-11-15T09:03:03;8.90;99.90
29281;DHT22;25048;49.590;11.026;2022-11-15T09:05:32;9.10;99.90
29281;DHT22;25048;49.590;11.026;2022-11-15T09:08:01;9.30;99.90
29281;DHT22;25048;49.590;11.026;2022-11-15T09:10:28;9.50;99.90
29281;DHT22;25048;49.590;11.026;2022-11-15T09:12:57;9.70;99.90
29281;DHT22;25048;49.590;11.026;2022-11-15T09:15:25;9.80;99.90
29281;DHT22;25048;49.590;11.026;2022-11-15T09:17:52;10.10;99.90
29281;DHT22;25048;49.590;11.026;2022-11-15T09:20:20;10.30;99.90
29281;DHT22;25048;49.590;11.026;2022-11-15T09:22:47;10.60;99.90
29281;DHT22;25048;49.590;11.026;2022-11-15T09:25:15;10.80;99.90
29281;DHT22;25048;49.590;11.026;2022-11-15T09:27:42;11.00;99.90
29281;DHT22;25048;49.590;11.026;2022-11-15T09:30:10;11.20;99.90
29281;DHT22;25048;49.590;11.026;2022-11-15T09:32:38;11.40;99.90
29281;DHT22;25048;49.590;11.026;2022-11-15T09:35:05;11.60;99.90
29281;DHT22;25048;49.590;11.026;2022-11-15T09:37:33;11.70;99.90
29281;DHT22;25048;49.590;11.026;2022-11-15T09:40:00;11.90;99.90
29281;DHT22;25048;49.590;11.026;2022-11-15T09:45:14;12.20;99.90
29281;DHT22;25048;49.590;11.026;2022-11-15T09:48:07;12.30;99.90
29281;DHT22;25048;49.590;11.026;2022-11-15T09:50:36;12.50;99.90
29281;DHT22;25048;49.590;11.026;2022-11-15T09:53:03;12.70;99.90
29281;DHT22;25048;49.590;11.026;2022-11-15T09:55:46;12.80;99.90
29281;DHT22;25048;49.590;11.026;2022-11-15T09:58:17;12.90;99.90
29281;DHT22;25048;49.590;11.026;2022-11-15T10:00:45;13.00;99.90
29281;DHT22;25048;49.590;11.026;2022-11-15T10:03:18;13.20;99.90
29281;DHT22;25048;49.590;11.026;2022-11-15T10:05:47;13.40;99.90
29281;DHT22;25048;49.590;11.026;2022-11-15T10:11:07;13.80;99.90
29281;DHT22;25048;49.590;11.026;2022-11-15T10:13:40;14.00;99.90
29281;DHT22;25048;49.590;11.026;2022-11-15T10:19:06;14.20;99.90
29281;DHT22;25048;49.590;11.026;2022-11-15T10:24:14;14.50;99.90
29281;DHT22;25048;49.590;11.026;2022-11-15T10:26:47;14.60;99.90
29281;DHT22;25048;49.590;11.026;2022-11-15T10:29:19;14.80;99.90
29281;DHT22;25048;49.590;11.026;2022-11-15T10:31:47;14.90;99.90
29281;DHT22;25048;49.590;11.026;2022-11-15T10:34:21;15.10;99.90
29281;DHT22;25048;49.590;11.026;2022-11-15T10:36:59;15.20;99.90
29281;DHT22;25048;49.590;11.026;2022-11-15T10:39:28;15.30;99.90
29281;DHT22;25048;49.590;11.026;2022-11-15T10:41:56;15.40;99.90
29281;DHT22;25048;49.590;11.026;2022-11-15T10:44:26;15.60;99.90
29281;DHT22;25048;49.590;11.026;2022-11-15T10:49:27;16.00;99.90
29281;DHT22;25048;49.590;11.026;2022-11-15T10:54:49;16.20;99.90
29281;DHT22;25048;49.590;11.026;2022-11-15T10:57:20;16.20;99.90
29281;DHT22;25048;49.590;11.026;2022-11-15T10:59:55;16.20;99.90
29281;DHT22;25048;49.590;11.026;2022-11-15T11:02:39;16.20;99.90
29281;DHT22;25048;49.590;11.026;2022-11-15T11:05:28;16.30;99.90
29281;DHT22;25048;49.590;11.026;2022-11-15T11:08:09;16.50;99.90
29281;DHT22;25048;49.590;11.026;2022-11-15T11:10:29;16.60;99.90
29281;DHT22;25048;49.590;11.026;2022-11-15T11:13:20;16.70;99.90
29281;DHT22;25048;49.590;11.026;2022-11-15T11:15:42;16.70;99.90
29281;DHT22;25048;49.590;11.026;2022-11-15T11:20:54;16.80;99.90
29281;DHT22;25048;49.590;11.026;2022-11-15T11:26:17;16.70;99.90
29281;DHT22;25048;49.590;11.026;2022-11-15T11:28:54;16.80;99.90
29281;DHT22;25048;49.590;11.026;2022-11-15T11:34:04;16.80;99.90
29281;DHT22;25048;49.590;11.026;2022-11-15T11:39:39;16.80;99.90
29281;DHT22;25048;49.590;11.026;2022-11-15T11:47:36;17.00;99.90
29281;DHT22;25048;49.590;11.026;2022-11-15T11:50:14;17.00;99.90
29281;DHT22;25048;49.590;11.026;2022-11-15T11:52:55;17.10;99.90
29281;DHT22;25048;49.590;11.026;2022-11-15T11:55:33;17.10;99.90
29281;DHT22;25048;49.590;11.026;2022-11-15T12:00:53;17.10;99.90
29281;DHT22;25048;49.590;11.026;2022-11-15T12:06:19;17.10;99.90
29281;DHT22;25048;49.590;11.026;2022-11-15T12:11:50;17.20;99.90
29281;DHT22;25048;49.590;11.026;2022-11-15T12:14:31;17.30;99.90
29281;DHT22;25048;49.590;11.026;2022-11-15T12:16:59;17.40;99.90
29281;DHT22;25048;49.590;11.026;2022-11-15T12:19:28;17.30;99.90
29281;DHT22;25048;49.590;11.026;2022-11-15T12:22:04;17.40;99.90
29281;DHT22;25048;49.590;11.026;2022-11-15T12:24:40;17.40;99.90
29281;DHT22;25048;49.590;11.026;2022-11-15T12:27:31;17.50;99.90
29281;DHT22;25048;49.590;11.026;2022-11-15T12:32:35;17.30;99.90
29281;DHT22;25048;49.590;11.026;2022-11-15T12:35:06;17.40;99.90
29281;DHT22;25048;49.590;11.026;2022-11-15T12:43:04;17.40;99.90
29281;DHT22;25048;49.590;11.026;2022-11-15T12:45:37;17.30;99.90
29281;DHT22;25048;49.590;11.026;2022-11-15T12:48:44;17.30;99.90
29281;DHT22;25048;49.590;11.026;2022-11-15T12:50:56;17.30;99.90
29281;DHT22;25048;49.590;11.026;2022-11-15T12:53:27;17.20;99.90
29281;DHT22;25048;49.590;11.026;2022-11-15T13:04:26;17.10;99.90
29281;DHT22;25048;49.590;11.026;2022-11-15T13:07:05;16.90;99.90
29281;DHT22;25048;49.590;11.026;2022-11-15T13:17:46;16.50;99.90
29281;DHT22;25048;49.590;11.026;2022-11-15T13:23:14;16.40;99.90
29281;DHT22;25048;49.590;11.026;2022-11-15T13:28:20;16.30;99.90
29281;DHT22;25048;49.590;11.026;2022-11-15T13:30:50;16.30;99.90
29281;DHT22;25048;49.590;11.026;2022-11-15T13:33:36;16.20;99.90
29281;DHT22;25048;49.590;11.026;2022-11-15T13:36:07;16.20;99.90
29281;DHT22;25048;49.590;11.026;2022-11-15T13:38:37;16.10;99.90
29281;DHT22;25048;49.590;11.026;2022-11-15T13:41:19;16.10;99.90
29281;DHT22;25048;49.590;11.026;2022-11-15T13:43:48;16.00;99.90
29281;DHT22;25048;49.590;11.026;2022-11-15T13:46:18;15.90;99.90
29281;DHT22;25048;49.590;11.026;2022-11-15T13:48:57;16.00;99.90
29281;DHT22;25048;49.590;11.026;2022-11-15T13:51:35;16.00;99.90
29281;DHT22;25048;49.590;11.026;2022-11-15T13:59:34;16.10;99.90
29281;DHT22;25048;49.590;11.026;2022-11-15T14:02:11;16.30;99.90
29281;DHT22;25048;49.590;11.026;2022-11-15T14:04:34;16.60;99.90
29281;DHT22;25048;49.590;11.026;2022-11-15T14:07:02;16.90;99.90
29281;DHT22;25048;49.590;11.026;2022-11-15T14:09:36;17.00;99.90
29281;DHT22;25048;49.590;11.026;2022-11-15T14:12:21;17.10;99.90
29281;DHT22;25048;49.590;11.026;2022-11-15T14:14:48;17.20;99.90
29281;DHT22;25048;49.590;11.026;2022-11-15T14:19:58;17.20;99.90
29281;DHT22;25048;49.590;11.026;2022-11-15T14:22:28;17.00;99.90
29281;DHT22;25048;49.590;11.026;2022-11-15T14:25:20;16.90;99.90
29281;DHT22;25048;49.590;11.026;2022-11-15T14:30:43;16.50;99.90
29281;DHT22;25048;49.590;11.026;2022-11-15T14:33:22;16.40;99.90
29281;DHT22;25048;49.590;11.026;2022-11-15T14:35:46;16.30;99.90
29281;DHT22;25048;49.590;11.026;2022-11-15T14:38:13;16.10;99.90
29281;DHT22;25048;49.590;11.026;2022-11-15T14:40:42;15.90;99.90
29281;DHT22;25048;49.590;11.026;2022-11-15T14:43:11;15.70;99.90
29281;DHT22;25048;49.590;11.026;2022-11-15T14:45:39;15.40;99.90
29281;DHT22;25048;49.590;11.026;2022-11-15T14:48:07;15.20;99.90
29281;DHT22;25048;49.590;11.026;2022-11-15T14:50:35;15.00;99.90
29281;DHT22;25048;49.590;11.026;2022-11-15T14:53:02;14.70;99.90
29281;DHT22;25048;49.590;11.026;2022-11-15T14:55:37;14.50;99.90
29281;DHT22;25048;49.590;11.026;2022-11-15T14:58:06;14.30;99.90
29281;DHT22;25048;49.590;11.026;2022-11-15T15:00:38;14.10;99.90
29281;DHT22;25048;49.590;11.026;2022-11-15T15:03:07;13.90;99.90
29281;DHT22;25048;49.590;11.026;2022-11-15T15:05:37;13.70;99.90
29281;DHT22;25048;49.590;11.026;2022-11-15T15:08:06;13.50;99.90
29281;DHT22;25048;49.590;11.026;2022-11-15T15:10:37;13.40;99.90
29281;DHT22;25048;49.590;11.026;2022-11-15T15:13:05;13.10;99.90
29281;DHT22;25048;49.590;11.026;2022-11-15T15:15:36;12.90;99.90
29281;DHT22;25048;49.590;11.026;2022-11-15T15:18:04;12.70;99.90
29281;DHT22;25048;49.590;11.026;2022-11-15T15:20:35;12.50;99.90
29281;DHT22;25048;49.590;11.026;2022-11-15T15:23:03;12.30;99.90
29281;DHT22;25048;49.590;11.026;2022-11-15T15:25:33;12.00;99.90
29281;DHT22;25048;49.590;11.026;2022-11-15T15:28:02;11.80;99.90
29281;DHT22;25048;49.590;11.026;2022-11-15T15:30:30;11.60;99.90
29281;DHT22;25048;49.590;11.026;2022-11-15T15:32:58;11.40;99.90
29281;DHT22;25048;49.590;11.026;2022-11-15T15:35:28;11.20;99.90
29281;DHT22;25048;49.590;11.026;2022-11-15T15:37:56;11.00;99.90
29281;DHT22;25048;49.590;11.026;2022-11-15T15:40:25;10.80;99.90
29281;DHT22;25048;49.590;11.026;2022-11-15T15:42:53;10.60;99.90
29281;DHT22;25048;49.590;11.026;2022-11-15T15:45:20;10.40;99.90
29281;DHT22;25048;49.590;11.026;2022-11-15T15:47:48;10.30;99.90
29281;DHT22;25048;49.590;11.026;2022-11-15T15:50:26;10.10;99.90
29281;DHT22;25048;49.590;11.026;2022-11-15T15:52:57;10.00;99.90
29281;DHT22;25048;49.590;11.026;2022-11-15T15:55:25;9.90;99.90
29281;DHT22;25048;49.590;11.026;2022-11-15T15:57:54;9.80;99.90
29281;DHT22;25048;49.590;11.026;2022-11-15T16:00:24;9.70;99.90
29281;DHT22;25048;49.590;11.026;2022-11-15T16:02:53;9.60;99.90
29281;DHT22;25048;49.590;11.026;2022-11-15T16:05:22;9.60;99.90
29281;DHT22;25048;49.590;11.026;2022-11-15T16:07:49;9.50;99.90
29281;DHT22;25048;49.590;11.026;2022-11-15T16:10:20;9.40;99.90
29281;DHT22;25048;49.590;11.026;2022-11-15T16:12:48;9.40;99.90
29281;DHT22;25048;49.590;11.026;2022-11-15T16:15:16;9.30;99.90
29281;DHT22;25048;49.590;11.026;2022-11-15T16:17:58;9.30;99.90
29281;DHT22;25048;49.590;11.026;2022-11-15T16:23:02;9.30;99.90
29281;DHT22;25048;49.590;11.026;2022-11-15T16:25:33;9.20;99.90
29281;DHT22;25048;49.590;11.026;2022-11-15T16:28:01;9.20;99.90
29281;DHT22;25048;49.590;11.026;2022-11-15T16:30:28;9.20;99.90
29281;DHT22;25048;49.590;11.026;2022-11-15T16:32:56;9.20;99.90
29281;DHT22;25048;49.590;11.026;2022-11-15T16:35:23;9.20;99.90
29281;DHT22;25048;49.590;11.026;2022-11-15T16:37:51;9.20;99.90
29281;DHT22;25048;49.590;11.026;2022-11-15T16:40:33;9.20;99.90
29281;DHT22;25048;49.590;11.026;2022-11-15T16:43:01;9.10;99.90
29281;DHT22;25048;49.590;11.026;2022-11-15T16:45:33;9.10;99.90
29281;DHT22;25048;49.590;11.026;2022-11-15T16:48:01;9.10;99.90
29281;DHT22;25048;49.590;11.026;2022-11-15T16:50:31;9.10;99.90
29281;DHT22;25048;49.590;11.026;2022-11-15T16:53:00;9.10;99.90
29281;DHT22;25048;49.590;11.026;2022-11-15T16:55:29;9.10;99.90
29281;DHT22;25048;49.590;11.026;2022-11-15T16:57:57;9.00;99.90
29281;DHT22;25048;49.590;11.026;2022-11-15T17:00:25;9.00;99.90
29281;DHT22;25048;49.590;11.026;2022-11-15T17:02:53;9.00;99.90
29281;DHT22;25048;49.590;11.026;2022-11-15T17:05:22;9.00;99.90
29281;DHT22;25048;49.590;11.026;2022-11-15T17:07:52;9.00;99.90
29281;DHT22;25048;49.590;11.026;2022-11-15T17:10:23;9.00;99.90
29281;DHT22;25048;49.590;11.026;2022-11-15T17:12:51;9.00;99.90
29281;DHT22;25048;49.590;11.026;2022-11-15T17:15:19;9.00;99.90
29281;DHT22;25048;49.590;11.026;2022-11-15T17:17:53;9.00;99.90
29281;DHT22;25048;49.590;11.026;2022-11-15T17:20:24;9.00;99.90
29281;DHT22;25048;49.590;11.026;2022-11-15T17:22:52;9.00;99.90
29281;DHT22;25048;49.590;11.026;2022-11-15T17:25:19;9.00;99.90
29281;DHT22;25048;49.590;11.026;2022-11-15T17:27:47;9.10;99.90